createdAt,value
2023-05-14T00:01:38.971Z,1004.57
2023-05-14T00:11:44.459Z,1004.49
2023-05-14T00:21:50.089Z,1004.41
2023-05-14T00:31:55.877Z,1004.34
2023-05-14T00:42:01.428Z,1004.39
2023-05-14T00:52:07.187Z,1004.48
2023-05-14T01:02:13.153Z,1004.47
2023-05-14T01:12:18.589Z,1004.49
2023-05-14T01:22:24.677Z,1004.43
2023-05-14T01:32:30.232Z,1004.43
2023-05-14T01:42:35.529Z,1004.38
2023-05-14T01:52:41.174Z,1004.45
2023-05-14T02:02:46.818Z,1004.41
2023-05-14T02:12:52.369Z,1004.41
2023-05-14T02:22:58.198Z,1004.36
2023-05-14T02:33:04.096Z,1004.28
2023-05-14T02:43:10.078Z,1004.24
2023-05-14T02:53:16.053Z,1004.25
2023-05-14T03:03:21.462Z,1004.12
2023-05-14T03:13:27.490Z,1004.13
2023-05-14T03:23:31.129Z,1004.20
2023-05-14T03:33:38.521Z,1004.10
2023-05-14T03:43:45.136Z,1004.05
2023-05-14T03:53:51.104Z,1004.04
2023-05-14T04:03:57.228Z,1004.01
2023-05-14T04:14:02.752Z,1004.05
2023-05-14T04:24:08.630Z,1004.04
2023-05-14T04:34:14.314Z,1004.06
2023-05-14T04:44:19.857Z,1004.02
2023-05-14T04:54:25.860Z,1003.97
2023-05-14T05:04:31.969Z,1004.02
2023-05-14T05:14:37.638Z,1004.02
2023-05-14T05:24:43.387Z,1004.00
2023-05-14T05:34:48.716Z,1003.93
2023-05-14T05:44:54.559Z,1004.06
2023-05-14T05:55:00.049Z,1004.04
2023-05-14T06:05:06.189Z,1003.96
2023-05-14T06:15:11.941Z,1004.00
2023-05-14T06:25:17.917Z,1003.90
2023-05-14T06:35:23.537Z,1003.82
2023-05-14T06:45:30.708Z,1003.72
2023-05-14T06:55:37.881Z,1003.71
2023-05-14T07:05:43.217Z,1003.66
2023-05-14T07:15:49.202Z,1003.47
2023-05-14T07:25:55.022Z,1003.37
2023-05-14T07:36:00.659Z,1003.24
2023-05-14T07:46:06.091Z,1003.24
2023-05-14T07:56:11.890Z,1003.18
2023-05-14T08:06:17.823Z,1003.07
2023-05-14T08:16:23.799Z,1003.03
2023-05-14T08:26:29.403Z,1002.94
2023-05-14T08:36:35.018Z,1002.86
2023-05-14T08:46:40.387Z,1002.84
2023-05-14T08:56:45.959Z,1002.73
2023-05-14T09:06:51.269Z,1002.74
2023-05-14T09:16:57.310Z,1002.54
2023-05-14T09:27:03.648Z,1002.51
2023-05-14T09:37:09.536Z,1002.42
2023-05-14T09:47:15.079Z,1002.39
2023-05-14T09:57:20.843Z,1002.28
2023-05-14T10:07:26.238Z,1002.09
2023-05-14T10:17:31.563Z,1002.00
2023-05-14T10:27:37.677Z,1001.90
2023-05-14T10:37:43.622Z,1001.92
2023-05-14T10:47:49.836Z,1001.69
2023-05-14T10:57:55.393Z,1001.59
2023-05-14T11:08:00.968Z,1001.48
2023-05-14T11:18:06.690Z,1001.32
2023-05-14T11:28:12.853Z,1001.12
2023-05-14T11:38:18.382Z,1000.96
2023-05-14T11:48:23.850Z,1000.94
2023-05-14T11:58:29.782Z,1000.81
2023-05-14T12:08:35.343Z,1000.68
2023-05-14T12:18:40.996Z,1000.68
2023-05-14T12:28:47.028Z,1000.68
2023-05-14T12:38:52.963Z,1000.62
2023-05-14T12:48:58.944Z,1000.54
2023-05-14T12:59:04.468Z,1000.42
2023-05-14T13:09:10.198Z,1000.34
2023-05-14T13:19:15.895Z,1000.37
2023-05-14T13:29:21.988Z,1000.22
2023-05-14T13:39:28.093Z,1000.18
2023-05-14T13:49:33.995Z,1000.15
2023-05-14T13:59:39.911Z,1000.03
2023-05-14T14:09:45.737Z,1000.04
2023-05-14T14:19:51.589Z,999.89
2023-05-14T14:29:57.278Z,999.78
2023-05-14T14:40:02.937Z,999.92
2023-05-14T14:50:08.454Z,1000.09
2023-05-14T15:00:14.346Z,1000.12
2023-05-14T15:10:20.219Z,1000.08
2023-05-14T15:20:26.224Z,999.88
2023-05-14T15:30:32.123Z,999.87
2023-05-14T15:40:38.069Z,999.75
2023-05-14T15:50:43.687Z,999.79
2023-05-14T16:00:49.409Z,999.74
2023-05-14T16:10:54.969Z,999.79
2023-05-14T16:21:01.057Z,999.78
2023-05-14T16:31:06.446Z,999.75
2023-05-14T16:41:12.358Z,999.62
2023-05-14T16:51:17.953Z,999.50
2023-05-14T17:01:23.602Z,999.51
2023-05-14T17:11:29.503Z,999.54
2023-05-14T17:21:35.144Z,999.60
2023-05-14T17:31:40.974Z,999.63
2023-05-14T17:41:46.821Z,999.65
2023-05-14T17:51:52.521Z,999.74
2023-05-14T18:01:58.244Z,999.64
2023-05-14T18:12:04.299Z,999.75
2023-05-14T18:22:10.119Z,999.73
2023-05-14T18:32:15.794Z,999.72
2023-05-14T18:42:21.372Z,999.66
2023-05-14T18:52:25.964Z,999.75
2023-05-14T19:02:31.307Z,999.66
2023-05-14T19:12:38.715Z,999.73
2023-05-14T19:22:44.721Z,999.61
2023-05-14T19:32:50.715Z,999.64
2023-05-14T19:42:56.331Z,999.58
2023-05-14T19:53:02.294Z,999.53
2023-05-14T20:03:08.283Z,999.51
2023-05-14T20:13:14.369Z,999.43
2023-05-14T20:23:20.275Z,999.36
2023-05-14T20:33:26.113Z,999.39
2023-05-14T20:43:31.718Z,999.23
2023-05-14T20:53:37.491Z,999.17
2023-05-14T21:03:43.749Z,999.19
2023-05-14T21:13:49.952Z,999.09
2023-05-14T21:23:55.750Z,999.16
2023-05-14T21:34:01.155Z,999.19
2023-05-14T21:44:06.610Z,999.22
2023-05-14T21:54:12.110Z,999.19
2023-05-14T22:04:17.899Z,999.08
2023-05-14T22:14:24.177Z,999.07
2023-05-14T22:24:30.271Z,999.10
2023-05-14T22:34:36.345Z,998.97
2023-05-14T22:44:42.182Z,998.99
2023-05-14T22:54:47.914Z,998.96
2023-05-14T23:04:53.467Z,998.91
2023-05-14T23:14:59.028Z,998.85
2023-05-14T23:25:04.688Z,998.76
2023-05-14T23:35:09.955Z,998.64
2023-05-14T23:45:15.670Z,998.58
2023-05-14T23:55:21.300Z,998.45
